Thunder radar more information blitzortung!


Radar de pluja more information rain snow radar


Visita la nostra xarxa de llocs de meteo:

Template documentation
and downloads

And another site



No particular awareness of the weather is required.    There are no Weather-warnings

Pagina Historial Weather Underground text

Diari Resum Desembre 1, 2017 Unitats:  Tant    Imperial   Mètric
« Previous Dia
SegĂźent Dia »
Diari Setmana Mensual Anual Personalitzada
  Maxima: Minima: Media:
Temperatura: TemperatureC °F /  -17.8 °C 1.0 °F /  -17.2 °C 4.1 °F /  -15.5 °C
Punt de rosada: DewpointC °F /  -17.8 °C -8.7 °F /  -22.6 °C -4 °F /  -20 °C
Humitat: Humidity % 44 % 56 %
Wind Speed: WindSpeedKMH mph /  0 km/h - 3.8 mph /  6.1 km/h
RĂ fegues de vent: WindSpeedGustKMH mph /  0 km/h - -
Vent:- - SSE
Pression baro: PressurehPa in /  0 hPa 1008.0 in /  34130.9 hPa -
Precipitacions: 0.0 in /  0 mm    
Historical Graphs
 
 
Dades de taula per Desembre 1, 2017
Temps Temperatura Punt de rosada Pression baro Vent Wind Speed RĂ fegues de vent Humitat Rainfall Rate (Hourly)
TemperatureC °F /  -17.8 °C DewpointC °F /  -17.8 °C PressurehPa in /  0 hPa Calm     Humidity % HourlyPrecipMM in /  0 mm
01:00 3.4 °F /  -15.9 °C -6.6 °F /  -21.4 °C 1013.8 in /  34327.3 hPa Calm     48 % 0.0 in /  0 mm
01:05 3.3 °F /  -15.9 °C -6.7 °F /  -21.5 °C 1013.8 in /  34327.3 hPa Calm     48 % 0.0 in /  0 mm
01:10 3.3 °F /  -15.9 °C -6.4 °F /  -21.3 °C 1013.8 in /  34327.3 hPa Calm     49 % 0.0 in /  0 mm
01:15 3.3 °F /  -15.9 °C -6.4 °F /  -21.3 °C 1013.8 in /  34327.3 hPa Calm     49 % 0.0 in /  0 mm
01:20 3.3 °F /  -15.9 °C -6.4 °F /  -21.3 °C 1012.8 in /  34293.4 hPa Calm     49 % 0.0 in /  0 mm
01:25 3.3 °F /  -15.9 °C -6.4 °F /  -21.3 °C 1012.8 in /  34293.4 hPa Calm     49 % 0.0 in /  0 mm
01:30 3.4 °F /  -15.9 °C -6.1 °F /  -21.2 °C 1013.8 in /  34327.3 hPa Calm   1.6 mph /  2.6 km/h 50 % 0.0 in /  0 mm
01:40 3.4 °F /  -15.9 °C -6.1 °F /  -21.2 °C 1013.8 in /  34327.3 hPa North 1.6 mph /  2.6 km/h   50 % 0.0 in /  0 mm
01:45 3.5 °F /  -15.8 °C -5.7 °F /  -20.9 °C 1013.8 in /  34327.3 hPa NW 1.6 mph /  2.6 km/h 3.2 mph /  5.1 km/h 51 % 0.0 in /  0 mm
01:50 3.7 °F /  -15.7 °C -5.5 °F /  -20.8 °C 1012.8 in /  34293.4 hPa WNW 1.6 mph /  2.6 km/h 1.6 mph /  2.6 km/h 51 % 0.0 in /  0 mm
01:55 3.8 °F /  -15.7 °C -5.4 °F /  -20.8 °C 1012.8 in /  34293.4 hPa WSW 3.2 mph /  5.1 km/h 3.2 mph /  5.1 km/h 51 % 0.0 in /  0 mm
02:00 4.0 °F /  -15.6 °C -5.0 °F /  -20.6 °C 1012.8 in /  34293.4 hPa WSW 1.6 mph /  2.6 km/h 1.6 mph /  2.6 km/h 52 % 0.0 in /  0 mm
02:05 4.1 °F /  -15.5 °C -4.9 °F /  -20.5 °C 1012.8 in /  34293.4 hPa WNW 3.2 mph /  5.1 km/h 4.8 mph /  7.7 km/h 52 % 0.0 in /  0 mm
02:10 4.4 °F /  -15.3 °C -4.3 °F /  -20.2 °C 1012.8 in /  34293.4 hPa West 3.2 mph /  5.1 km/h 4.8 mph /  7.7 km/h 53 % 0.0 in /  0 mm
02:15 4.4 °F /  -15.3 °C -4.3 °F /  -20.2 °C 1012.8 in /  34293.4 hPa West 3.2 mph /  5.1 km/h 4.8 mph /  7.7 km/h 53 % 0.0 in /  0 mm
02:20 4.3 °F /  -15.4 °C -4.4 °F /  -20.2 °C 1011.7 in /  34256.2 hPa West 3.2 mph /  5.1 km/h 6.4 mph /  10.3 km/h 53 % 0.0 in /  0 mm
02:25 4.4 °F /  -15.3 °C -4.3 °F /  -20.2 °C 1011.7 in /  34256.2 hPa NW 1.6 mph /  2.6 km/h 3.2 mph /  5.1 km/h 53 % 0.0 in /  0 mm
02:35 4.3 °F /  -15.4 °C -4.2 °F /  -20.1 °C 1011.7 in /  34256.2 hPa Calm   1.6 mph /  2.6 km/h 54 % 0.0 in /  0 mm
02:40 4.2 °F /  -15.4 °C -4.3 °F /  -20.2 °C 1011.7 in /  34256.2 hPa ENE 3.2 mph /  5.1 km/h 3.2 mph /  5.1 km/h 54 % 0.0 in /  0 mm
02:45 4.1 °F /  -15.5 °C -4.4 °F /  -20.2 °C 1011.7 in /  34256.2 hPa Calm   3.2 mph /  5.1 km/h 54 % 0.0 in /  0 mm
02:50 4.1 °F /  -15.5 °C -4.4 °F /  -20.2 °C 1011.7 in /  34256.2 hPa WNW 3.2 mph /  5.1 km/h 3.2 mph /  5.1 km/h 54 % 0.0 in /  0 mm
02:55 4.2 °F /  -15.4 °C -4.3 °F /  -20.2 °C 1011.7 in /  34256.2 hPa WNW 1.6 mph /  2.6 km/h 1.6 mph /  2.6 km/h 54 % 0.0 in /  0 mm
03:00 4.2 °F /  -15.4 °C -4.3 °F /  -20.2 °C 1011.7 in /  34256.2 hPa WNW 3.2 mph /  5.1 km/h 3.2 mph /  5.1 km/h 54 % 0.0 in /  0 mm
03:05 4.2 °F /  -15.4 °C -4.3 °F /  -20.2 °C 1011.7 in /  34256.2 hPa West 3.2 mph /  5.1 km/h 3.2 mph /  5.1 km/h 54 % 0.0 in /  0 mm
03:10 4.3 °F /  -15.4 °C -4.2 °F /  -20.1 °C 1011.7 in /  34256.2 hPa West 3.2 mph /  5.1 km/h 3.2 mph /  5.1 km/h 54 % 0.0 in /  0 mm
03:15 4.4 °F /  -15.3 °C -3.9 °F /  -19.9 °C 1011.7 in /  34256.2 hPa West 1.6 mph /  2.6 km/h 4.8 mph /  7.7 km/h 55 % 0.0 in /  0 mm
03:25 4.5 °F /  -15.3 °C -3.8 °F /  -19.9 °C 1011.7 in /  34256.2 hPa West 3.2 mph /  5.1 km/h 3.2 mph /  5.1 km/h 55 % 0.0 in /  0 mm
03:30 4.4 °F /  -15.3 °C -3.9 °F /  -19.9 °C 1010.7 in /  34222.3 hPa Calm   3.2 mph /  5.1 km/h 55 % 0.0 in /  0 mm
03:35 4.4 °F /  -15.3 °C -3.9 °F /  -19.9 °C 1010.7 in /  34222.3 hPa WNW 3.2 mph /  5.1 km/h 3.2 mph /  5.1 km/h 55 % 0.0 in /  0 mm
03:40 4.4 °F /  -15.3 °C -3.9 °F /  -19.9 °C 1010.7 in /  34222.3 hPa WNW 3.2 mph /  5.1 km/h 3.2 mph /  5.1 km/h 55 % 0.0 in /  0 mm
03:45 4.4 °F /  -15.3 °C -3.9 °F /  -19.9 °C 1011.7 in /  34256.2 hPa WNW 1.6 mph /  2.6 km/h 3.2 mph /  5.1 km/h 55 % 0.0 in /  0 mm
03:50 4.4 °F /  -15.3 °C -3.6 °F /  -19.8 °C 1011.7 in /  34256.2 hPa Calm   3.2 mph /  5.1 km/h 56 % 0.0 in /  0 mm
03:55 4.4 °F /  -15.3 °C -3.6 °F /  -19.8 °C 1011.7 in /  34256.2 hPa Calm   1.6 mph /  2.6 km/h 56 % 0.0 in /  0 mm
04:00 4.4 °F /  -15.3 °C -3.6 °F /  -19.8 °C 1011.7 in /  34256.2 hPa Calm   3.2 mph /  5.1 km/h 56 % 0.0 in /  0 mm
04:05 4.3 °F /  -15.4 °C -3.9 °F /  -19.9 °C 1011.7 in /  34256.2 hPa NW 1.6 mph /  2.6 km/h 3.2 mph /  5.1 km/h 55 % 0.0 in /  0 mm
04:10 4.2 °F /  -15.4 °C -3.8 °F /  -19.9 °C 1011.7 in /  34256.2 hPa Calm   1.6 mph /  2.6 km/h 56 % 0.0 in /  0 mm
04:15 4.3 °F /  -15.4 °C -3.7 °F /  -19.8 °C 1011.7 in /  34256.2 hPa Calm   1.6 mph /  2.6 km/h 56 % 0.0 in /  0 mm
04:20 4.5 °F /  -15.3 °C -3.6 °F /  -19.8 °C 1011.7 in /  34256.2 hPa Calm   1.6 mph /  2.6 km/h 56 % 0.0 in /  0 mm
04:25 4.6 °F /  -15.2 °C -3.2 °F /  -19.6 °C 1011.7 in /  34256.2 hPa Calm     57 % 0.0 in /  0 mm
04:30 4.6 °F /  -15.2 °C -3.2 °F /  -19.6 °C 1010.7 in /  34222.3 hPa SE 1.6 mph /  2.6 km/h 1.6 mph /  2.6 km/h 57 % 0.0 in /  0 mm
04:35 4.5 °F /  -15.3 °C -3.3 °F /  -19.6 °C 1010.7 in /  34222.3 hPa East 1.6 mph /  2.6 km/h 1.6 mph /  2.6 km/h 57 % 0.0 in /  0 mm
04:40 4.4 °F /  -15.3 °C -3.6 °F /  -19.8 °C 1010.7 in /  34222.3 hPa NW 4.8 mph /  7.7 km/h 4.8 mph /  7.7 km/h 56 % 0.0 in /  0 mm
04:45 4.5 °F /  -15.3 °C -3.6 °F /  -19.8 °C 1010.7 in /  34222.3 hPa NW 4.8 mph /  7.7 km/h 4.8 mph /  7.7 km/h 56 % 0.0 in /  0 mm
04:50 4.5 °F /  -15.3 °C -3.3 °F /  -19.6 °C 1010.7 in /  34222.3 hPa NNW 4.8 mph /  7.7 km/h 4.8 mph /  7.7 km/h 57 % 0.0 in /  0 mm
04:55 4.2 °F /  -15.4 °C -3.6 °F /  -19.8 °C 1010.7 in /  34222.3 hPa NNW 3.2 mph /  5.1 km/h 3.2 mph /  5.1 km/h 57 % 0.0 in /  0 mm
05:10 4.0 °F /  -15.6 °C -4.0 °F /  -20 °C 1010.7 in /  34222.3 hPa North 1.6 mph /  2.6 km/h 4.8 mph /  7.7 km/h 56 % 0.0 in /  0 mm
05:15 4.1 °F /  -15.5 °C -3.7 °F /  -19.8 °C 1010.7 in /  34222.3 hPa NNW 4.8 mph /  7.7 km/h 4.8 mph /  7.7 km/h 57 % 0.0 in /  0 mm
05:20 4.1 °F /  -15.5 °C -3.7 °F /  -19.8 °C 1010.7 in /  34222.3 hPa NNW 1.6 mph /  2.6 km/h 3.2 mph /  5.1 km/h 57 % 0.0 in /  0 mm
05:25 4.2 °F /  -15.4 °C -3.6 °F /  -19.8 °C 1010.7 in /  34222.3 hPa North 1.6 mph /  2.6 km/h 3.2 mph /  5.1 km/h 57 % 0.0 in /  0 mm
05:30 4.1 °F /  -15.5 °C -3.7 °F /  -19.8 °C 1010.7 in /  34222.3 hPa NE 1.6 mph /  2.6 km/h 3.2 mph /  5.1 km/h 57 % 0.0 in /  0 mm
05:35 4.0 °F /  -15.6 °C -3.8 °F /  -19.9 °C 1010.7 in /  34222.3 hPa Calm   3.2 mph /  5.1 km/h 57 % 0.0 in /  0 mm
05:40 4.0 °F /  -15.6 °C -3.6 °F /  -19.8 °C 1010.7 in /  34222.3 hPa ENE 1.6 mph /  2.6 km/h   58 % 0.0 in /  0 mm
05:45 3.8 °F /  -15.7 °C -3.9 °F /  -19.9 °C 1010.0 in /  34198.6 hPa NE 1.6 mph /  2.6 km/h 3.2 mph /  5.1 km/h 57 % 0.0 in /  0 mm
05:50 3.7 °F /  -15.7 °C -3.8 °F /  -19.9 °C 1010.0 in /  34198.6 hPa ENE 3.2 mph /  5.1 km/h 4.8 mph /  7.7 km/h 58 % 0.0 in /  0 mm
06:05 3.3 °F /  -15.9 °C -4.2 °F /  -20.1 °C 1010.0 in /  34198.6 hPa ENE 1.6 mph /  2.6 km/h 4.8 mph /  7.7 km/h 58 % 0.0 in /  0 mm
06:10 3.2 °F /  -16 °C -4.3 °F /  -20.2 °C 1010.0 in /  34198.6 hPa NE 1.6 mph /  2.6 km/h 4.8 mph /  7.7 km/h 58 % 0.0 in /  0 mm
06:15 3.0 °F /  -16.1 °C -4.7 °F /  -20.4 °C 1010.0 in /  34198.6 hPa North 1.6 mph /  2.6 km/h 1.6 mph /  2.6 km/h 57 % 0.0 in /  0 mm
06:20 3.1 °F /  -16.1 °C -4.4 °F /  -20.2 °C 1010.0 in /  34198.6 hPa NNE 4.8 mph /  7.7 km/h 6.4 mph /  10.3 km/h 58 % 0.0 in /  0 mm
06:35 2.8 °F /  -16.2 °C -4.7 °F /  -20.4 °C 1010.0 in /  34198.6 hPa NNE 4.8 mph /  7.7 km/h 6.4 mph /  10.3 km/h 58 % 0.0 in /  0 mm
06:40 2.8 °F /  -16.2 °C -4.7 °F /  -20.4 °C 1010.0 in /  34198.6 hPa NNE 4.8 mph /  7.7 km/h 9.7 mph /  15.6 km/h 58 % 0.0 in /  0 mm
06:45 2.8 °F /  -16.2 °C -4.7 °F /  -20.4 °C 1010.0 in /  34198.6 hPa NNE 1.6 mph /  2.6 km/h 9.7 mph /  15.6 km/h 58 % 0.0 in /  0 mm
06:50 2.7 °F /  -16.3 °C -4.8 °F /  -20.4 °C 1010.0 in /  34198.6 hPa NE 3.2 mph /  5.1 km/h 4.8 mph /  7.7 km/h 58 % 0.0 in /  0 mm
07:00 2.5 °F /  -16.4 °C -4.7 °F /  -20.4 °C 1010.0 in /  34198.6 hPa NE 3.2 mph /  5.1 km/h 4.8 mph /  7.7 km/h 59 % 0.0 in /  0 mm
07:05 2.4 °F /  -16.4 °C -4.8 °F /  -20.4 °C 1010.0 in /  34198.6 hPa NE 3.2 mph /  5.1 km/h 3.2 mph /  5.1 km/h 59 % 0.0 in /  0 mm
07:10 2.4 °F /  -16.4 °C -4.8 °F /  -20.4 °C 1010.0 in /  34198.6 hPa NE 3.2 mph /  5.1 km/h 4.8 mph /  7.7 km/h 59 % 0.0 in /  0 mm
07:15 2.4 °F /  -16.4 °C -4.8 °F /  -20.4 °C 1010.0 in /  34198.6 hPa East 1.6 mph /  2.6 km/h 4.8 mph /  7.7 km/h 59 % 0.0 in /  0 mm
07:20 2.4 °F /  -16.4 °C -4.8 °F /  -20.4 °C 1010.0 in /  34198.6 hPa Calm   4.8 mph /  7.7 km/h 59 % 0.0 in /  0 mm
07:30 2.6 °F /  -16.3 °C -4.6 °F /  -20.3 °C 1010.0 in /  34198.6 hPa West 3.2 mph /  5.1 km/h 6.4 mph /  10.3 km/h 59 % 0.0 in /  0 mm
07:35 2.6 °F /  -16.3 °C -4.6 °F /  -20.3 °C 1010.0 in /  34198.6 hPa West 4.8 mph /  7.7 km/h 6.4 mph /  10.3 km/h 59 % 0.0 in /  0 mm
07:40 3.0 °F /  -16.1 °C -4.0 °F /  -20 °C 1010.0 in /  34198.6 hPa WSW 1.6 mph /  2.6 km/h 4.8 mph /  7.7 km/h 60 % 0.0 in /  0 mm
07:45 3.4 °F /  -15.9 °C -3.7 °F /  -19.8 °C 1010.0 in /  34198.6 hPa WNW 4.8 mph /  7.7 km/h 4.8 mph /  7.7 km/h 60 % 0.0 in /  0 mm
07:50 3.9 °F /  -15.6 °C -3.2 °F /  -19.6 °C 1010.0 in /  34198.6 hPa WNW 1.6 mph /  2.6 km/h 4.8 mph /  7.7 km/h 60 % 0.0 in /  0 mm
07:55 3.7 °F /  -15.7 °C -3.3 °F /  -19.6 °C 1010.0 in /  34198.6 hPa WSW 3.2 mph /  5.1 km/h 6.4 mph /  10.3 km/h 60 % 0.0 in /  0 mm
08:00 3.6 °F /  -15.8 °C -3.4 °F /  -19.7 °C 1010.0 in /  34198.6 hPa West 1.6 mph /  2.6 km/h 6.4 mph /  10.3 km/h 60 % 0.0 in /  0 mm
08:05 3.5 °F /  -15.8 °C -3.6 °F /  -19.8 °C 1010.0 in /  34198.6 hPa WNW 3.2 mph /  5.1 km/h 3.2 mph /  5.1 km/h 60 % 0.0 in /  0 mm
08:10 3.6 °F /  -15.8 °C -3.4 °F /  -19.7 °C 1010.0 in /  34198.6 hPa WNW 3.2 mph /  5.1 km/h 6.4 mph /  10.3 km/h 60 % 0.0 in /  0 mm
08:15 3.6 °F /  -15.8 °C -3.4 °F /  -19.7 °C 1010.0 in /  34198.6 hPa West 3.2 mph /  5.1 km/h 6.4 mph /  10.3 km/h 60 % 0.0 in /  0 mm
08:20 3.8 °F /  -15.7 °C -3.3 °F /  -19.6 °C 1010.0 in /  34198.6 hPa West 1.6 mph /  2.6 km/h 3.2 mph /  5.1 km/h 60 % 0.0 in /  0 mm
08:25 4.0 °F /  -15.6 °C -3.1 °F /  -19.5 °C 1010.0 in /  34198.6 hPa WNW 3.2 mph /  5.1 km/h 3.2 mph /  5.1 km/h 60 % 0.0 in /  0 mm
08:30 4.2 °F /  -15.4 °C -2.9 °F /  -19.4 °C 1010.0 in /  34198.6 hPa WNW 1.6 mph /  2.6 km/h 3.2 mph /  5.1 km/h 60 % 0.0 in /  0 mm
08:35 4.3 °F /  -15.4 °C -2.8 °F /  -19.3 °C 1010.0 in /  34198.6 hPa NW 3.2 mph /  5.1 km/h 4.8 mph /  7.7 km/h 60 % 0.0 in /  0 mm
08:40 4.8 °F /  -15.1 °C -2.1 °F /  -18.9 °C 1010.0 in /  34198.6 hPa WNW 1.6 mph /  2.6 km/h 4.8 mph /  7.7 km/h 61 % 0.0 in /  0 mm
08:45 5.1 °F /  -14.9 °C -1.8 °F /  -18.8 °C 1010.0 in /  34198.6 hPa South 1.6 mph /  2.6 km/h 3.2 mph /  5.1 km/h 61 % 0.0 in /  0 mm
08:50 5.2 °F /  -14.9 °C -1.9 °F /  -18.8 °C 1010.0 in /  34198.6 hPa NW 4.8 mph /  7.7 km/h 4.8 mph /  7.7 km/h 60 % 0.0 in /  0 mm
09:00 4.7 °F /  -15.2 °C -2.7 °F /  -19.3 °C 1010.0 in /  34198.6 hPa NNE 4.8 mph /  7.7 km/h 4.8 mph /  7.7 km/h 59 % 0.0 in /  0 mm
09:05 4.5 °F /  -15.3 °C -2.8 °F /  -19.3 °C 1010.0 in /  34198.6 hPa NNE 3.2 mph /  5.1 km/h 4.8 mph /  7.7 km/h 59 % 0.0 in /  0 mm
09:10 4.5 °F /  -15.3 °C -2.8 °F /  -19.3 °C 1010.0 in /  34198.6 hPa NE 3.2 mph /  5.1 km/h 3.2 mph /  5.1 km/h 59 % 0.0 in /  0 mm
09:20 3.6 °F /  -15.8 °C -6.9 °F /  -21.6 °C 1013.8 in /  34327.3 hPa SW 1.6 mph /  2.6 km/h 1.6 mph /  2.6 km/h 46 % 0.0 in /  0 mm
09:24 4.4 °F /  -15.3 °C -2.9 °F /  -19.4 °C 1010.0 in /  34198.6 hPa NNW 3.7 mph /  6 km/h 3.7 mph /  6 km/h 59 % 0.0 in /  0 mm
09:29 4.4 °F /  -15.3 °C -2.9 °F /  -19.4 °C 1010.0 in /  34198.6 hPa NNW 3.7 mph /  6 km/h 3.7 mph /  6 km/h 59 % 0.0 in /  0 mm
09:34 4.4 °F /  -15.3 °C -3.2 °F /  -19.6 °C 1010.0 in /  34198.6 hPa ENE 7.6 mph /  12.2 km/h 7.6 mph /  12.2 km/h 58 % 0.0 in /  0 mm
09:39 4.3 °F /  -15.4 °C -3.2 °F /  -19.6 °C 1010.0 in /  34198.6 hPa ENE 5.0 mph /  8 km/h 5.0 mph /  8 km/h 58 % 0.0 in /  0 mm
09:44 4.3 °F /  -15.4 °C -3.2 °F /  -19.6 °C 1009.0 in /  34164.7 hPa NNW 3.7 mph /  6 km/h 3.7 mph /  6 km/h 58 % 0.0 in /  0 mm
09:50 4.4 °F /  -15.3 °C -2.9 °F /  -19.4 °C 1009.0 in /  34164.7 hPa ENE 7.9 mph /  12.7 km/h 7.9 mph /  12.7 km/h 59 % 0.0 in /  0 mm
09:55 4.4 °F /  -15.3 °C -2.9 °F /  -19.4 °C 1009.0 in /  34164.7 hPa East 5.6 mph /  9 km/h 5.6 mph /  9 km/h 59 % 0.0 in /  0 mm
10:00 4.4 °F /  -15.3 °C -3.2 °F /  -19.6 °C 1010.0 in /  34198.6 hPa North 5.6 mph /  9 km/h 5.6 mph /  9 km/h 58 % 0.0 in /  0 mm
10:05 4.4 °F /  -15.3 °C -3.2 °F /  -19.6 °C 1010.0 in /  34198.6 hPa East 3.7 mph /  6 km/h 3.7 mph /  6 km/h 58 % 0.0 in /  0 mm
10:10 4.4 °F /  -15.3 °C -2.9 °F /  -19.4 °C 1010.0 in /  34198.6 hPa South 2.3 mph /  3.7 km/h 2.3 mph /  3.7 km/h 59 % 0.0 in /  0 mm
10:15 4.3 °F /  -15.4 °C -3.2 °F /  -19.6 °C 1010.0 in /  34198.6 hPa NNE 7.4 mph /  11.9 km/h 7.4 mph /  11.9 km/h 58 % 0.0 in /  0 mm
10:20 4.0 °F /  -15.6 °C -3.6 °F /  -19.8 °C 1010.0 in /  34198.6 hPa NNE 9.5 mph /  15.3 km/h 9.5 mph /  15.3 km/h 58 % 0.0 in /  0 mm
10:30 4.0 °F /  -15.6 °C -3.6 °F /  -19.8 °C 1010.0 in /  34198.6 hPa NE 10.3 mph /  16.6 km/h 10.3 mph /  16.6 km/h 58 % 0.0 in /  0 mm
10:35 3.9 °F /  -15.6 °C -3.6 °F /  -19.8 °C 1010.0 in /  34198.6 hPa NNE 9.3 mph /  15 km/h 9.3 mph /  15 km/h 58 % 0.0 in /  0 mm
10:40 4.1 °F /  -15.5 °C -3.2 °F /  -19.6 °C 1010.0 in /  34198.6 hPa NNE 9.3 mph /  15 km/h 9.3 mph /  15 km/h 59 % 0.0 in /  0 mm
10:45 4.3 °F /  -15.4 °C -3.0 °F /  -19.4 °C 1010.7 in /  34222.3 hPa NE 9.3 mph /  15 km/h 9.3 mph /  15 km/h 59 % 0.0 in /  0 mm
10:50 4.5 °F /  -15.3 °C -2.8 °F /  -19.3 °C 1010.7 in /  34222.3 hPa NE 7.4 mph /  11.9 km/h 7.4 mph /  11.9 km/h 59 % 0.0 in /  0 mm
10:55 4.6 °F /  -15.2 °C -2.7 °F /  -19.3 °C 1010.7 in /  34222.3 hPa WNW 7.4 mph /  11.9 km/h 7.4 mph /  11.9 km/h 59 % 0.0 in /  0 mm
11:00 4.7 °F /  -15.2 °C -2.7 °F /  -19.3 °C 1010.7 in /  34222.3 hPa NE 5.6 mph /  9 km/h 5.6 mph /  9 km/h 59 % 0.0 in /  0 mm
11:05 4.6 °F /  -15.2 °C -2.7 °F /  -19.3 °C 1010.7 in /  34222.3 hPa NNE 13.0 mph /  20.9 km/h 13.0 mph /  20.9 km/h 59 % 0.0 in /  0 mm
11:10 4.6 °F /  -15.2 °C -2.7 °F /  -19.3 °C 1010.7 in /  34222.3 hPa NNW 3.7 mph /  6 km/h 3.7 mph /  6 km/h 59 % 0.0 in /  0 mm
11:15 4.7 °F /  -15.2 °C -2.7 °F /  -19.3 °C 1010.7 in /  34222.3 hPa ENE 6.4 mph /  10.3 km/h 6.4 mph /  10.3 km/h 59 % 0.0 in /  0 mm
11:20 4.7 °F /  -15.2 °C -2.9 °F /  -19.4 °C 1010.7 in /  34222.3 hPa NNE 7.4 mph /  11.9 km/h 7.4 mph /  11.9 km/h 58 % 0.0 in /  0 mm
11:25 4.6 °F /  -15.2 °C -2.9 °F /  -19.4 °C 1010.7 in /  34222.3 hPa ENE 9.3 mph /  15 km/h 9.3 mph /  15 km/h 58 % 0.0 in /  0 mm
11:30 4.6 °F /  -15.2 °C -2.9 °F /  -19.4 °C 1010.0 in /  34198.6 hPa ENE 7.9 mph /  12.7 km/h 7.9 mph /  12.7 km/h 58 % 0.0 in /  0 mm
11:35 4.5 °F /  -15.3 °C -3.1 °F /  -19.5 °C 1010.0 in /  34198.6 hPa ENE 9.0 mph /  14.5 km/h 9.0 mph /  14.5 km/h 58 % 0.0 in /  0 mm
11:40 4.5 °F /  -15.3 °C -3.1 °F /  -19.5 °C 1010.0 in /  34198.6 hPa NNE 7.4 mph /  11.9 km/h 7.4 mph /  11.9 km/h 58 % 0.0 in /  0 mm
11:45 4.5 °F /  -15.3 °C -2.8 °F /  -19.3 °C 1010.0 in /  34198.6 hPa East 4.2 mph /  6.8 km/h 4.2 mph /  6.8 km/h 59 % 0.0 in /  0 mm
11:50 4.4 °F /  -15.3 °C -2.9 °F /  -19.4 °C 1010.0 in /  34198.6 hPa NNE 3.7 mph /  6 km/h 3.9 mph /  6.3 km/h 59 % 0.0 in /  0 mm
11:55 4.5 °F /  -15.3 °C -2.8 °F /  -19.3 °C 1010.0 in /  34198.6 hPa NNE 3.7 mph /  6 km/h 3.7 mph /  6 km/h 59 % 0.0 in /  0 mm
12:00 4.6 °F /  -15.2 °C -2.7 °F /  -19.3 °C 1010.0 in /  34198.6 hPa NNW 6.9 mph /  11.1 km/h 6.9 mph /  11.1 km/h 59 % 0.0 in /  0 mm
12:05 4.7 °F /  -15.2 °C -2.7 °F /  -19.3 °C 1010.0 in /  34198.6 hPa NNE 7.4 mph /  11.9 km/h 7.4 mph /  11.9 km/h 59 % 0.0 in /  0 mm
12:10 4.9 °F /  -15.1 °C -2.4 °F /  -19.1 °C 1010.0 in /  34198.6 hPa ENE 3.9 mph /  6.3 km/h 3.9 mph /  6.3 km/h 59 % 0.0 in /  0 mm
12:15 5.0 °F /  -15 °C -2.3 °F /  -19.1 °C 1009.0 in /  34164.7 hPa NNE 7.4 mph /  11.9 km/h 7.4 mph /  11.9 km/h 59 % 0.0 in /  0 mm
12:25 5.1 °F /  -14.9 °C -2.3 °F /  -19.1 °C 1009.0 in /  34164.7 hPa NNE 5.3 mph /  8.5 km/h 5.3 mph /  8.5 km/h 59 % 0.0 in /  0 mm
12:30 5.3 °F /  -14.8 °C -2.1 °F /  -18.9 °C 1010.0 in /  34198.6 hPa NNE 5.3 mph /  8.5 km/h 5.3 mph /  8.5 km/h 59 % 0.0 in /  0 mm
12:35 5.2 °F /  -14.9 °C -2.4 °F /  -19.1 °C 1010.0 in /  34198.6 hPa NE 3.7 mph /  6 km/h 3.9 mph /  6.3 km/h 58 % 0.0 in /  0 mm
12:40 5.3 °F /  -14.8 °C -2.1 °F /  -18.9 °C 1010.0 in /  34198.6 hPa ENE 3.7 mph /  6 km/h 3.7 mph /  6 km/h 59 % 0.0 in /  0 mm
12:45 5.3 °F /  -14.8 °C -2.3 °F /  -19.1 °C 1010.0 in /  34198.6 hPa ENE 4.7 mph /  7.6 km/h 4.7 mph /  7.6 km/h 58 % 0.0 in /  0 mm
12:50 5.4 °F /  -14.8 °C -2.0 °F /  -18.9 °C 1010.0 in /  34198.6 hPa ENE 3.5 mph /  5.6 km/h 3.5 mph /  5.6 km/h 59 % 0.0 in /  0 mm
12:55 5.4 °F /  -14.8 °C -2.2 °F /  -19 °C 1010.0 in /  34198.6 hPa NE 7.4 mph /  11.9 km/h 7.4 mph /  11.9 km/h 58 % 0.0 in /  0 mm
13:00 5.3 °F /  -14.8 °C -2.3 °F /  -19.1 °C 1010.0 in /  34198.6 hPa NNE 7.4 mph /  11.9 km/h 7.4 mph /  11.9 km/h 58 % 0.0 in /  0 mm
13:05 5.2 °F /  -14.9 °C -2.4 °F /  -19.1 °C 1010.0 in /  34198.6 hPa NNE 7.4 mph /  11.9 km/h 7.4 mph /  11.9 km/h 58 % 0.0 in /  0 mm
13:11 5.2 °F /  -14.9 °C -2.4 °F /  -19.1 °C 1010.0 in /  34198.6 hPa ENE 7.4 mph /  11.9 km/h 7.4 mph /  11.9 km/h 58 % 0.0 in /  0 mm
13:21 5.4 °F /  -14.8 °C -2.4 °F /  -19.1 °C 1010.0 in /  34198.6 hPa East 3.7 mph /  6 km/h 3.7 mph /  6 km/h 57 % 0.0 in /  0 mm
13:26 5.5 °F /  -14.7 °C -2.3 °F /  -19.1 °C 1010.0 in /  34198.6 hPa NNE 7.4 mph /  11.9 km/h 7.4 mph /  11.9 km/h 57 % 0.0 in /  0 mm
13:31 5.5 °F /  -14.7 °C -2.3 °F /  -19.1 °C 1010.0 in /  34198.6 hPa SSW 9.3 mph /  15 km/h 9.3 mph /  15 km/h 57 % 0.0 in /  0 mm
13:36 5.5 °F /  -14.7 °C -2.3 °F /  -19.1 °C 1010.0 in /  34198.6 hPa NNE 9.3 mph /  15 km/h 9.3 mph /  15 km/h 57 % 0.0 in /  0 mm
13:41 5.5 °F /  -14.7 °C -2.6 °F /  -19.2 °C 1010.0 in /  34198.6 hPa NNE 7.4 mph /  11.9 km/h 7.4 mph /  11.9 km/h 56 % 0.0 in /  0 mm
13:46 5.5 °F /  -14.7 °C -2.6 °F /  -19.2 °C 1010.0 in /  34198.6 hPa NNW 4.7 mph /  7.6 km/h 4.7 mph /  7.6 km/h 56 % 0.0 in /  0 mm
13:51 5.5 °F /  -14.7 °C -2.6 °F /  -19.2 °C 1010.0 in /  34198.6 hPa NNW 5.6 mph /  9 km/h 5.6 mph /  9 km/h 56 % 0.0 in /  0 mm
14:01 5.7 °F /  -14.6 °C -2.7 °F /  -19.3 °C 1009.0 in /  34164.7 hPa NNW 5.6 mph /  9 km/h 5.6 mph /  9 km/h 55 % 0.0 in /  0 mm
14:06 5.8 °F /  -14.6 °C -2.6 °F /  -19.2 °C 1009.0 in /  34164.7 hPa NNW 1.9 mph /  3.1 km/h   55 % 0.0 in /  0 mm
14:11 5.9 °F /  -14.5 °C -2.4 °F /  -19.1 °C 1009.0 in /  34164.7 hPa West 1.9 mph /  3.1 km/h 1.9 mph /  3.1 km/h 55 % 0.0 in /  0 mm
14:21 6.2 °F /  -14.3 °C -2.4 °F /  -19.1 °C 1008.0 in /  34130.9 hPa ENE 7.4 mph /  11.9 km/h 7.4 mph /  11.9 km/h 54 % 0.0 in /  0 mm
14:26 6.2 °F /  -14.3 °C -2.4 °F /  -19.1 °C 1008.0 in /  34130.9 hPa NNE 11.1 mph /  17.9 km/h 11.1 mph /  17.9 km/h 54 % 0.0 in /  0 mm
14:31 6.3 °F /  -14.3 °C -2.3 °F /  -19.1 °C 1008.0 in /  34130.9 hPa SSE 3.7 mph /  6 km/h 4.7 mph /  7.6 km/h 54 % 0.0 in /  0 mm
14:36 6.4 °F /  -14.2 °C -2.2 °F /  -19 °C 1008.0 in /  34130.9 hPa SW 7.4 mph /  11.9 km/h 7.4 mph /  11.9 km/h 54 % 0.0 in /  0 mm
14:41 6.6 °F /  -14.1 °C -2.1 °F /  -18.9 °C 1008.0 in /  34130.9 hPa NNW 5.6 mph /  9 km/h 5.6 mph /  9 km/h 54 % 0.0 in /  0 mm
14:46 6.6 °F /  -14.1 °C -2.1 °F /  -18.9 °C 1008.0 in /  34130.9 hPa NE 5.6 mph /  9 km/h 5.6 mph /  9 km/h 54 % 0.0 in /  0 mm
14:51 6.6 °F /  -14.1 °C -2.1 °F /  -18.9 °C 1008.0 in /  34130.9 hPa NW 7.4 mph /  11.9 km/h 7.4 mph /  11.9 km/h 54 % 0.0 in /  0 mm
14:56 6.8 °F /  -14 °C -2.1 °F /  -18.9 °C 1008.0 in /  34130.9 hPa WSW 3.7 mph /  6 km/h 3.7 mph /  6 km/h 53 % 0.0 in /  0 mm
15:01 7.0 °F /  -13.9 °C -1.9 °F /  -18.8 °C 1008.0 in /  34130.9 hPa South 5.6 mph /  9 km/h 5.6 mph /  9 km/h 53 % 0.0 in /  0 mm
15:06 7.1 °F /  -13.8 °C -2.1 °F /  -18.9 °C 1008.0 in /  34130.9 hPa ENE 9.3 mph /  15 km/h 9.3 mph /  15 km/h 52 % 0.0 in /  0 mm
15:11 7.0 °F /  -13.9 °C -2.2 °F /  -19 °C 1008.0 in /  34130.9 hPa NE 9.3 mph /  15 km/h 9.3 mph /  15 km/h 52 % 0.0 in /  0 mm
15:16 7.0 °F /  -13.9 °C -2.2 °F /  -19 °C 1008.0 in /  34130.9 hPa NNW 6.1 mph /  9.8 km/h 6.1 mph /  9.8 km/h 52 % 0.0 in /  0 mm
15:26 7.0 °F /  -13.9 °C -2.2 °F /  -19 °C 1008.0 in /  34130.9 hPa NE 9.3 mph /  15 km/h 9.3 mph /  15 km/h 52 % 0.0 in /  0 mm
15:31 7.1 °F /  -13.8 °C -2.1 °F /  -18.9 °C 1008.0 in /  34130.9 hPa NNE 7.2 mph /  11.6 km/h 7.2 mph /  11.6 km/h 52 % 0.0 in /  0 mm
15:36 7.4 °F /  -13.7 °C -2.1 °F /  -18.9 °C 1008.0 in /  34130.9 hPa NE 3.7 mph /  6 km/h 3.7 mph /  6 km/h 51 % 0.0 in /  0 mm
15:41 7.7 °F /  -13.5 °C -1.8 °F /  -18.8 °C 1008.0 in /  34130.9 hPa SSW 3.7 mph /  6 km/h 3.7 mph /  6 km/h 51 % 0.0 in /  0 mm
15:51 7.6 °F /  -13.6 °C -1.9 °F /  -18.8 °C 1008.0 in /  34130.9 hPa WNW 3.7 mph /  6 km/h 3.7 mph /  6 km/h 51 % 0.0 in /  0 mm
15:56 7.5 °F /  -13.6 °C -2.0 °F /  -18.9 °C 1008.0 in /  34130.9 hPa East 5.6 mph /  9 km/h 5.6 mph /  9 km/h 51 % 0.0 in /  0 mm
16:01 7.1 °F /  -13.8 °C -2.4 °F /  -19.1 °C 1008.0 in /  34130.9 hPa NNE 5.6 mph /  9 km/h 5.6 mph /  9 km/h 51 % 0.0 in /  0 mm
16:06 7.0 °F /  -13.9 °C -2.7 °F /  -19.3 °C 1008.0 in /  34130.9 hPa WSW 10.3 mph /  16.6 km/h 10.3 mph /  16.6 km/h 50 % 0.0 in /  0 mm
16:11 6.9 °F /  -13.9 °C -2.8 °F /  -19.3 °C 1008.0 in /  34130.9 hPa WNW 3.7 mph /  6 km/h 3.7 mph /  6 km/h 50 % 0.0 in /  0 mm
16:16 6.8 °F /  -14 °C -2.9 °F /  -19.4 °C 1009.0 in /  34164.7 hPa WNW 3.7 mph /  6 km/h 3.7 mph /  6 km/h 50 % 0.0 in /  0 mm
16:21 6.7 °F /  -14.1 °C -3.0 °F /  -19.4 °C 1009.0 in /  34164.7 hPa West 1.9 mph /  3.1 km/h   50 % 0.0 in /  0 mm
16:26 6.6 °F /  -14.1 °C -3.1 °F /  -19.5 °C 1009.0 in /  34164.7 hPa WNW 1.9 mph /  3.1 km/h 1.9 mph /  3.1 km/h 50 % 0.0 in /  0 mm
16:31 6.5 °F /  -14.2 °C -3.2 °F /  -19.6 °C 1010.0 in /  34198.6 hPa NNE 3.7 mph /  6 km/h 3.7 mph /  6 km/h 50 % 0.0 in /  0 mm
16:36 6.4 °F /  -14.2 °C -3.3 °F /  -19.6 °C 1010.0 in /  34198.6 hPa NNE 3.7 mph /  6 km/h 3.7 mph /  6 km/h 50 % 0.0 in /  0 mm
16:41 6.3 °F /  -14.3 °C -3.4 °F /  -19.7 °C 1010.0 in /  34198.6 hPa WNW 3.7 mph /  6 km/h 3.7 mph /  6 km/h 50 % 0.0 in /  0 mm
16:46 6.3 °F /  -14.3 °C -3.4 °F /  -19.7 °C 1010.0 in /  34198.6 hPa Calm     50 % 0.0 in /  0 mm
17:01 5.9 °F /  -14.5 °C -3.5 °F /  -19.7 °C 1010.0 in /  34198.6 hPa ESE 7.4 mph /  11.9 km/h 7.4 mph /  11.9 km/h 51 % 0.0 in /  0 mm
17:11 5.7 °F /  -14.6 °C -3.4 °F /  -19.7 °C 1010.0 in /  34198.6 hPa ESE 9.3 mph /  15 km/h 9.3 mph /  15 km/h 52 % 0.0 in /  0 mm
17:16 5.5 °F /  -14.7 °C -3.3 °F /  -19.6 °C 1010.0 in /  34198.6 hPa ENE 9.3 mph /  15 km/h 9.3 mph /  15 km/h 53 % 0.0 in /  0 mm
17:21 5.3 °F /  -14.8 °C -3.3 °F /  -19.6 °C 1010.0 in /  34198.6 hPa ENE 5.6 mph /  9 km/h 5.6 mph /  9 km/h 54 % 0.0 in /  0 mm
17:31 5.0 °F /  -15 °C -3.1 °F /  -19.5 °C 1010.0 in /  34198.6 hPa East 5.6 mph /  9 km/h 5.6 mph /  9 km/h 56 % 0.0 in /  0 mm
17:36 4.8 °F /  -15.1 °C -3.2 °F /  -19.6 °C 1010.0 in /  34198.6 hPa East 3.7 mph /  6 km/h 3.7 mph /  6 km/h 56 % 0.0 in /  0 mm
17:46 4.5 °F /  -15.3 °C -3.6 °F /  -19.8 °C 1010.7 in /  34222.3 hPa NNE 9.5 mph /  15.3 km/h 9.5 mph /  15.3 km/h 56 % 0.0 in /  0 mm
17:47 4.5 °F /  -15.3 °C -3.6 °F /  -19.8 °C 1010.7 in /  34222.3 hPa ENE 9.3 mph /  15 km/h 9.3 mph /  15 km/h 56 % 0.0 in /  0 mm
18:02 4.3 °F /  -15.4 °C -3.7 °F /  -19.8 °C 1010.0 in /  34198.6 hPa ENE 5.6 mph /  9 km/h 5.6 mph /  9 km/h 56 % 0.0 in /  0 mm
18:07 4.3 °F /  -15.4 °C -3.5 °F /  -19.7 °C 1010.0 in /  34198.6 hPa NE 3.7 mph /  6 km/h 3.7 mph /  6 km/h 57 % 0.0 in /  0 mm
18:12 4.2 °F /  -15.4 °C -3.6 °F /  -19.8 °C 1010.0 in /  34198.6 hPa NNE 2.6 mph /  4.2 km/h   57 % 0.0 in /  0 mm
18:17 4.2 °F /  -15.4 °C -3.6 °F /  -19.8 °C 1010.7 in /  34222.3 hPa Calm     57 % 0.0 in /  0 mm
18:22 4.1 °F /  -15.5 °C -3.7 °F /  -19.8 °C 1010.7 in /  34222.3 hPa Calm     57 % 0.0 in /  0 mm
18:23 4.1 °F /  -15.5 °C -3.7 °F /  -19.8 °C 1010.7 in /  34222.3 hPa Calm     57 % 0.0 in /  0 mm
18:28 4.0 °F /  -15.6 °C -3.8 °F /  -19.9 °C 1010.7 in /  34222.3 hPa Calm     57 % 0.0 in /  0 mm
18:33 3.8 °F /  -15.7 °C -3.7 °F /  -19.8 °C 1010.7 in /  34222.3 hPa NE 2.6 mph /  4.2 km/h 2.6 mph /  4.2 km/h 58 % 0.0 in /  0 mm
18:38 3.7 °F /  -15.7 °C -3.8 °F /  -19.9 °C 1010.7 in /  34222.3 hPa Calm     58 % 0.0 in /  0 mm
18:48 3.5 °F /  -15.8 °C -4.0 °F /  -20 °C 1011.7 in /  34256.2 hPa Calm     58 % 0.0 in /  0 mm
19:03 3.3 °F /  -15.9 °C -3.7 °F /  -19.8 °C 1011.7 in /  34256.2 hPa Calm     60 % 0.0 in /  0 mm
19:08 3.2 °F /  -16 °C -3.8 °F /  -19.9 °C 1011.7 in /  34256.2 hPa Calm     60 % 0.0 in /  0 mm
19:13 2.9 °F /  -16.2 °C -4.3 °F /  -20.2 °C 1011.7 in /  34256.2 hPa SW 3.7 mph /  6 km/h 3.7 mph /  6 km/h 59 % 0.0 in /  0 mm
19:29 2.7 °F /  -16.3 °C -4.3 °F /  -20.2 °C 1011.7 in /  34256.2 hPa West 3.9 mph /  6.3 km/h 3.9 mph /  6.3 km/h 60 % 0.0 in /  0 mm
19:34 2.7 °F /  -16.3 °C -4.3 °F /  -20.2 °C 1011.7 in /  34256.2 hPa Calm     60 % 0.0 in /  0 mm
19:35 2.7 °F /  -16.3 °C -4.1 °F /  -20.1 °C 1011.7 in /  34256.2 hPa ENE 1.9 mph /  3.1 km/h   61 % 0.0 in /  0 mm
19:40 2.4 °F /  -16.4 °C -4.4 °F /  -20.2 °C 1011.7 in /  34256.2 hPa ENE 1.9 mph /  3.1 km/h   61 % 0.0 in /  0 mm
19:45 2.4 °F /  -16.4 °C -4.2 °F /  -20.1 °C 1012.8 in /  34293.4 hPa East 3.7 mph /  6 km/h 3.7 mph /  6 km/h 62 % 0.0 in /  0 mm
19:50 2.4 °F /  -16.4 °C -4.4 °F /  -20.2 °C 1012.8 in /  34293.4 hPa WSW 3.7 mph /  6 km/h 3.7 mph /  6 km/h 61 % 0.0 in /  0 mm
19:55 2.5 °F /  -16.4 °C -4.1 °F /  -20.1 °C 1012.8 in /  34293.4 hPa Calm     62 % 0.0 in /  0 mm
20:00 2.5 °F /  -16.4 °C -4.1 °F /  -20.1 °C 1013.8 in /  34327.3 hPa Calm     62 % 0.0 in /  0 mm
20:08 2.3 °F /  -16.5 °C -4.2 °F /  -20.1 °C 1013.8 in /  34327.3 hPa SW 3.7 mph /  6 km/h 3.7 mph /  6 km/h 62 % 0.0 in /  0 mm
20:13 2.0 °F /  -16.7 °C -4.5 °F /  -20.3 °C 1013.8 in /  34327.3 hPa SW 1.9 mph /  3.1 km/h   62 % 0.0 in /  0 mm
20:18 2.2 °F /  -16.6 °C -4.3 °F /  -20.2 °C 1012.8 in /  34293.4 hPa Calm     62 % 0.0 in /  0 mm
20:23 2.1 °F /  -16.6 °C -4.4 °F /  -20.2 °C 1012.8 in /  34293.4 hPa SW 3.7 mph /  6 km/h 3.7 mph /  6 km/h 62 % 0.0 in /  0 mm
20:28 2.0 °F /  -16.7 °C -4.3 °F /  -20.2 °C 1012.8 in /  34293.4 hPa Calm     63 % 0.0 in /  0 mm
20:33 2.1 °F /  -16.6 °C -4.2 °F /  -20.1 °C 1013.8 in /  34327.3 hPa Calm     63 % 0.0 in /  0 mm
20:38 2.1 °F /  -16.6 °C -4.2 °F /  -20.1 °C 1013.8 in /  34327.3 hPa WSW 1.9 mph /  3.1 km/h 1.9 mph /  3.1 km/h 63 % 0.0 in /  0 mm
20:43 2.4 °F /  -16.4 °C -4.2 °F /  -20.1 °C 1013.8 in /  34327.3 hPa WNW 3.7 mph /  6 km/h 3.7 mph /  6 km/h 62 % 0.0 in /  0 mm
20:48 2.3 °F /  -16.5 °C -4.1 °F /  -20.1 °C 1013.8 in /  34327.3 hPa SW 3.7 mph /  6 km/h 3.7 mph /  6 km/h 63 % 0.0 in /  0 mm
20:53 1.9 °F /  -16.7 °C -4.4 °F /  -20.2 °C 1013.8 in /  34327.3 hPa Calm     63 % 0.0 in /  0 mm
21:03 1.4 °F /  -17 °C -5.1 °F /  -20.6 °C 1013.8 in /  34327.3 hPa WSW 3.7 mph /  6 km/h 3.9 mph /  6.3 km/h 62 % 0.0 in /  0 mm
21:13 1.0 °F /  -17.2 °C -5.5 °F /  -20.8 °C 1013.8 in /  34327.3 hPa SW 3.7 mph /  6 km/h 3.7 mph /  6 km/h 62 % 0.0 in /  0 mm
21:18 1.0 °F /  -17.2 °C -5.7 °F /  -20.9 °C 1013.8 in /  34327.3 hPa WSW 3.7 mph /  6 km/h 3.7 mph /  6 km/h 61 % 0.0 in /  0 mm
21:28 1.3 °F /  -17.1 °C -5.4 °F /  -20.8 °C 1013.8 in /  34327.3 hPa WSW 1.9 mph /  3.1 km/h 1.9 mph /  3.1 km/h 61 % 0.0 in /  0 mm
21:33 1.3 °F /  -17.1 °C -5.4 °F /  -20.8 °C 1013.8 in /  34327.3 hPa SW 3.7 mph /  6 km/h 3.7 mph /  6 km/h 61 % 0.0 in /  0 mm
21:38 1.0 °F /  -17.2 °C -5.7 °F /  -20.9 °C 1013.8 in /  34327.3 hPa SW 3.7 mph /  6 km/h 3.7 mph /  6 km/h 61 % 0.0 in /  0 mm
21:44 1.0 °F /  -17.2 °C -5.9 °F /  -21.1 °C 1013.8 in /  34327.3 hPa West 4.2 mph /  6.8 km/h 4.2 mph /  6.8 km/h 60 % 0.0 in /  0 mm
21:49 1.5 °F /  -16.9 °C -6.3 °F /  -21.3 °C 1013.8 in /  34327.3 hPa West 6.9 mph /  11.1 km/h 6.9 mph /  11.1 km/h 56 % 0.0 in /  0 mm
22:04 1.7 °F /  -16.8 °C -7.1 °F /  -21.7 °C 1013.8 in /  34327.3 hPa ENE 1.9 mph /  3.1 km/h   52 % 0.0 in /  0 mm
22:09 1.7 °F /  -16.8 °C -7.1 °F /  -21.7 °C 1013.8 in /  34327.3 hPa ENE 3.7 mph /  6 km/h 3.7 mph /  6 km/h 52 % 0.0 in /  0 mm
22:14 1.6 °F /  -16.9 °C -7.4 °F /  -21.9 °C 1013.8 in /  34327.3 hPa ENE 1.9 mph /  3.1 km/h 1.9 mph /  3.1 km/h 51 % 0.0 in /  0 mm
22:19 1.5 °F /  -16.9 °C -7.6 °F /  -22 °C 1013.8 in /  34327.3 hPa East 3.7 mph /  6 km/h 3.7 mph /  6 km/h 51 % 0.0 in /  0 mm
22:24 1.4 °F /  -17 °C -7.7 °F /  -22.1 °C 1013.8 in /  34327.3 hPa ENE 1.9 mph /  3.1 km/h 1.9 mph /  3.1 km/h 51 % 0.0 in /  0 mm
22:29 1.3 °F /  -17.1 °C -7.7 °F /  -22.1 °C 1013.8 in /  34327.3 hPa NNE 5.0 mph /  8 km/h 5.0 mph /  8 km/h 51 % 0.0 in /  0 mm
22:34 1.4 °F /  -17 °C -7.9 °F /  -22.2 °C 1013.8 in /  34327.3 hPa North 1.9 mph /  3.1 km/h   50 % 0.0 in /  0 mm
22:45 2.1 °F /  -16.6 °C -7.3 °F /  -21.8 °C 1013.8 in /  34327.3 hPa West 5.6 mph /  9 km/h 5.6 mph /  9 km/h 50 % 0.0 in /  0 mm
22:50 2.3 °F /  -16.5 °C -7.3 °F /  -21.8 °C 1013.8 in /  34327.3 hPa SW 5.6 mph /  9 km/h 5.6 mph /  9 km/h 49 % 0.0 in /  0 mm
22:55 2.4 °F /  -16.4 °C -7.2 °F /  -21.8 °C 1013.8 in /  34327.3 hPa SW 6.1 mph /  9.8 km/h 6.1 mph /  9.8 km/h 49 % 0.0 in /  0 mm
22:59 2.5 °F /  -16.4 °C -7.2 °F /  -21.8 °C 1013.8 in /  34327.3 hPa WSW 4.7 mph /  7.6 km/h 4.7 mph /  7.6 km/h 49 % 0.0 in /  0 mm
23:05 2.5 °F /  -16.4 °C -7.4 °F /  -21.9 °C 1013.8 in /  34327.3 hPa WSW 7.4 mph /  11.9 km/h 7.4 mph /  11.9 km/h 48 % 0.0 in /  0 mm
23:10 2.5 °F /  -16.4 °C -7.7 °F /  -22.1 °C 1013.8 in /  34327.3 hPa West 3.7 mph /  6 km/h 3.7 mph /  6 km/h 47 % 0.0 in /  0 mm
23:15 2.5 °F /  -16.4 °C -7.7 °F /  -22.1 °C 1013.8 in /  34327.3 hPa West 3.7 mph /  6 km/h 3.7 mph /  6 km/h 47 % 0.0 in /  0 mm
23:19 2.6 °F /  -16.3 °C -7.9 °F /  -22.2 °C 1013.8 in /  34327.3 hPa West 3.7 mph /  6 km/h 3.7 mph /  6 km/h 46 % 0.0 in /  0 mm
23:25 2.6 °F /  -16.3 °C -8.2 °F /  -22.3 °C 1013.8 in /  34327.3 hPa Calm     45 % 0.0 in /  0 mm
23:30 2.5 °F /  -16.4 °C -8.3 °F /  -22.4 °C 1013.8 in /  34327.3 hPa WSW 2.6 mph /  4.2 km/h 2.6 mph /  4.2 km/h 45 % 0.0 in /  0 mm
23:35 2.4 °F /  -16.4 °C -8.3 °F /  -22.4 °C 1013.8 in /  34327.3 hPa West 1.9 mph /  3.1 km/h   45 % 0.0 in /  0 mm
23:40 2.4 °F /  -16.4 °C -8.6 °F /  -22.6 °C 1013.8 in /  34327.3 hPa WNW 1.9 mph /  3.1 km/h   44 % 0.0 in /  0 mm
23:45 2.3 °F /  -16.5 °C -8.7 °F /  -22.6 °C 1013.8 in /  34327.3 hPa West 4.2 mph /  6.8 km/h   44 % 0.0 in /  0 mm
23:49 2.2 °F /  -16.6 °C -8.5 °F /  -22.5 °C 1013.8 in /  34327.3 hPa WSW 7.9 mph /  12.7 km/h 7.9 mph /  12.7 km/h 45 % 0.0 in /  0 mm
23:54 2.3 °F /  -16.5 °C -8.7 °F /  -22.6 °C 1013.8 in /  34327.3 hPa WSW 5.6 mph /  9 km/h 5.8 mph /  9.3 km/h 44 % 0.0 in /  0 mm
23:59 2.4 °F /  -16.4 °C -8.6 °F /  -22.6 °C 1013.8 in /  34327.3 hPa West 7.4 mph /  11.9 km/h 7.4 mph /  11.9 km/h 44 % 0.0 in /  0 mm
Meteo Sesrovires
Elogis d' Weather Underground - 1.75 mb

Guio original per  Jim McMurry - jmcmurry@mwt.net Adaptat per a la plantilla per  Wim van der Kuil - Leuven-Template.eu

Trobareu la nostra informacio del temps tambe a:

Weather Underground

AWEKAS